createdAt,value
2019-05-22T00:02:46.503Z,99375.63
2019-05-22T00:05:18.109Z,99376.61
2019-05-22T00:07:47.440Z,99379.73
2019-05-22T00:10:22.608Z,99379.86
2019-05-22T00:12:53.813Z,99384.30
2019-05-22T00:15:24.386Z,99386.38
2019-05-22T00:17:53.965Z,99384.03
2019-05-22T00:20:24.160Z,99388.05
2019-05-22T00:22:53.279Z,99388.90
2019-05-22T00:25:26.036Z,99393.49
2019-05-22T00:27:55.926Z,99392.69
2019-05-22T00:30:26.778Z,99386.61
2019-05-22T00:32:57.316Z,99384.63
2019-05-22T00:35:26.505Z,99380.88
2019-05-22T00:37:56.578Z,99379.89
2019-05-22T00:40:28.811Z,99380.20
2019-05-22T00:43:05.041Z,99374.06
2019-05-22T00:45:30.552Z,99373.31
2019-05-22T00:47:59.692Z,99367.91
2019-05-22T00:50:32.749Z,99371.22
2019-05-22T00:53:22.873Z,99369.58
2019-05-22T00:56:09.866Z,99367.87
2019-05-22T00:58:46.394Z,99364.75
2019-05-22T01:01:23.609Z,99360.37
2019-05-22T01:03:56.411Z,99363.25
2019-05-22T01:06:28.950Z,99365.03
2019-05-22T01:09:01.267Z,99356.24
2019-05-22T01:11:31.824Z,99360.48
2019-05-22T01:14:01.089Z,99365.97
2019-05-22T01:16:30.547Z,99363.83
2019-05-22T01:18:59.527Z,99368.30
2019-05-22T01:21:30.325Z,99365.06
2019-05-22T01:23:59.402Z,99366.89
2019-05-22T01:26:28.894Z,99371.34
2019-05-22T01:28:57.682Z,99373.98
2019-05-22T01:31:30.280Z,99385.25
2019-05-22T01:34:03.005Z,99382.60
2019-05-22T01:36:50.348Z,99379.04
2019-05-22T01:39:36.449Z,99375.09
2019-05-22T01:42:10.268Z,99383.11
2019-05-22T01:44:40.075Z,99388.38
2019-05-22T01:47:15.953Z,99388.00
2019-05-22T01:49:51.545Z,99383.27
2019-05-22T01:52:22.170Z,99381.72
2019-05-22T01:54:52.022Z,99381.05
2019-05-22T01:57:22.849Z,99390.14
2019-05-22T01:59:52.377Z,99385.80
2019-05-22T02:02:23.678Z,99383.81
2019-05-22T02:04:52.360Z,99386.45
2019-05-22T02:07:21.247Z,99381.20
2019-05-22T02:09:51.711Z,99377.38
2019-05-22T02:12:40.583Z,99384.08
2019-05-22T02:15:10.586Z,99390.02
2019-05-22T02:17:39.179Z,99386.38
2019-05-22T02:20:09.113Z,99382.06
2019-05-22T02:22:39.611Z,99384.02
2019-05-22T02:25:09.221Z,99388.52
2019-05-22T02:27:39.463Z,99391.05
2019-05-22T02:30:09.882Z,99390.95
2019-05-22T02:32:40.497Z,99385.97
2019-05-22T02:35:10.506Z,99382.95
2019-05-22T02:37:41.175Z,99381.81
2019-05-22T02:40:19.004Z,99378.61
2019-05-22T02:42:48.211Z,99380.38
2019-05-22T02:45:16.780Z,99380.02
2019-05-22T02:47:46.276Z,99374.80
2019-05-22T02:50:16.171Z,99373.50
2019-05-22T02:52:44.858Z,99367.03
2019-05-22T02:55:13.973Z,99366.98
2019-05-22T02:57:42.939Z,99375.05
2019-05-22T03:00:14.231Z,99374.05
2019-05-22T03:02:50.377Z,99375.63
2019-05-22T03:05:19.530Z,99373.84
2019-05-22T03:07:51.222Z,99379.05
2019-05-22T03:10:22.423Z,99381.30
2019-05-22T03:12:51.107Z,99382.58
2019-05-22T03:15:23.651Z,99388.89
2019-05-22T03:17:58.725Z,99380.73
2019-05-22T03:20:28.462Z,99389.78
2019-05-22T03:23:16.953Z,99385.20
2019-05-22T03:25:45.845Z,99385.53
2019-05-22T03:28:14.829Z,99389.92
2019-05-22T03:30:46.250Z,99389.63
2019-05-22T03:33:16.008Z,99388.73
2019-05-22T03:35:46.784Z,99395.53
2019-05-22T03:38:17.672Z,99394.41
2019-05-22T03:40:48.204Z,99399.52
2019-05-22T03:43:21.792Z,99408.25
2019-05-22T03:45:51.383Z,99406.50
2019-05-22T03:48:20.785Z,99413.48
2019-05-22T03:50:51.356Z,99416.27
2019-05-22T03:53:20.447Z,99417.58
2019-05-22T03:55:49.083Z,99421.94
2019-05-22T03:58:18.274Z,99426.77
2019-05-22T04:00:51.699Z,99429.82
2019-05-22T04:03:20.814Z,99428.38
2019-05-22T04:05:51.223Z,99423.39
2019-05-22T04:08:24.615Z,99422.53
2019-05-22T04:11:04.647Z,99423.52
2019-05-22T04:13:33.728Z,99427.05
2019-05-22T04:16:05.901Z,99430.91
2019-05-22T04:18:36.757Z,99429.48
2019-05-22T04:21:05.658Z,99439.08
2019-05-22T04:23:35.406Z,99432.77
2019-05-22T04:26:08.137Z,99434.30
2019-05-22T04:28:49.478Z,99437.27
2019-05-22T04:31:18.955Z,99438.54
2019-05-22T04:33:47.632Z,99437.87
2019-05-22T04:36:17.654Z,99440.11
2019-05-22T04:38:46.240Z,99438.69
2019-05-22T04:41:16.649Z,99442.56
2019-05-22T04:43:46.039Z,99439.30
2019-05-22T04:46:14.738Z,99442.13
2019-05-22T04:48:46.139Z,99444.78
2019-05-22T04:51:40.163Z,99439.23
2019-05-22T04:54:08.962Z,99437.28
2019-05-22T04:56:38.051Z,99427.23
2019-05-22T04:59:07.672Z,99429.31
2019-05-22T05:01:36.723Z,99429.27
2019-05-22T05:04:06.102Z,99420.53
2019-05-22T05:06:37.103Z,99420.59
2019-05-22T05:09:09.995Z,99420.28
2019-05-22T05:11:39.906Z,99426.00
2019-05-22T05:14:08.329Z,99417.02
2019-05-22T05:16:37.405Z,99415.92
2019-05-22T05:19:06.568Z,99410.83
2019-05-22T05:21:37.406Z,99419.36
2019-05-22T05:24:06.593Z,99414.05
2019-05-22T05:26:37.097Z,99414.64
2019-05-22T05:29:10.200Z,99418.91
2019-05-22T05:31:39.622Z,99424.83
2019-05-22T05:34:45.891Z,99438.34
2019-05-22T05:37:17.274Z,99442.64
2019-05-22T05:40:25.352Z,99441.09
2019-05-22T05:42:54.341Z,99436.28
2019-05-22T05:45:23.727Z,99439.11
2019-05-22T05:47:52.641Z,99438.37
2019-05-22T05:50:37.843Z,99444.66
2019-05-22T05:52:54.139Z,99441.06
2019-05-22T05:55:26.922Z,99451.60
2019-05-22T05:58:27.042Z,99453.56
2019-05-22T06:01:02.457Z,99464.86
2019-05-22T06:03:38.640Z,99461.20
2019-05-22T06:06:54.361Z,99460.16
2019-05-22T06:09:25.383Z,99462.34
2019-05-22T06:11:57.601Z,99458.31
2019-05-22T06:14:29.963Z,99459.63
2019-05-22T06:17:37.943Z,99463.45
2019-05-22T06:20:11.079Z,99468.92
2019-05-22T06:22:42.335Z,99458.22
2019-05-22T06:25:13.694Z,99455.72
2019-05-22T06:27:55.178Z,99452.18
2019-05-22T06:30:46.497Z,99450.51
2019-05-22T06:33:43.655Z,99452.73
2019-05-22T06:36:15.958Z,99453.77
2019-05-22T06:39:06.877Z,99454.08
2019-05-22T06:41:37.984Z,99452.07
2019-05-22T06:44:39.359Z,99445.36
2019-05-22T06:47:13.080Z,99441.27
2019-05-22T06:49:53.432Z,99438.75
2019-05-22T06:52:22.331Z,99441.71
2019-05-22T06:54:51.456Z,99440.97
2019-05-22T06:57:38.443Z,99441.58
2019-05-22T07:00:17.861Z,99438.84
2019-05-22T07:02:46.401Z,99438.88
2019-05-22T07:05:15.590Z,99433.44
2019-05-22T07:07:44.585Z,99426.39
2019-05-22T07:10:13.974Z,99421.00
2019-05-22T07:12:43.082Z,99424.65
2019-05-22T07:15:45.638Z,99423.91
2019-05-22T07:18:17.178Z,99416.20
2019-05-22T07:20:46.781Z,99425.36
2019-05-22T07:23:18.274Z,99421.52
2019-05-22T07:25:48.667Z,99417.30
2019-05-22T07:28:19.733Z,99417.63
2019-05-22T07:30:48.806Z,99416.56
2019-05-22T07:33:19.043Z,99430.51
2019-05-22T07:36:07.634Z,99436.41
2019-05-22T07:38:19.921Z,99431.34
2019-05-22T07:40:51.221Z,99428.04
2019-05-22T07:43:22.473Z,99421.39
2019-05-22T07:45:52.086Z,99424.78
2019-05-22T07:48:24.361Z,99421.45
2019-05-22T07:50:54.165Z,99411.50
2019-05-22T07:53:24.596Z,99420.26
2019-05-22T07:55:53.991Z,99418.97
2019-05-22T07:58:23.259Z,99421.18
2019-05-22T08:00:58.562Z,99429.36
2019-05-22T08:03:29.637Z,99437.98
2019-05-22T08:05:58.740Z,99430.73
2019-05-22T08:08:31.226Z,99430.27
2019-05-22T08:10:59.725Z,99419.93
2019-05-22T08:13:29.682Z,99427.69
2019-05-22T08:15:58.534Z,99426.70
2019-05-22T08:18:29.782Z,99427.95
2019-05-22T08:20:58.381Z,99422.02
2019-05-22T08:23:28.798Z,99417.39
2019-05-22T08:25:59.474Z,99420.34
2019-05-22T08:28:31.110Z,99417.48
2019-05-22T08:31:00.638Z,99421.02
2019-05-22T08:33:31.072Z,99417.28
2019-05-22T08:36:00.547Z,99411.86
2019-05-22T08:38:32.091Z,99409.02
2019-05-22T08:41:02.047Z,99395.32
2019-05-22T08:43:52.375Z,99403.41
2019-05-22T08:46:04.313Z,99390.50
2019-05-22T08:52:23.424Z,99387.06
2019-05-22T08:54:48.207Z,99387.92
2019-05-22T08:57:19.657Z,99377.27
2019-05-22T08:59:48.207Z,99369.57
2019-05-22T09:02:17.256Z,99368.37
2019-05-22T09:04:45.953Z,99364.05
2019-05-22T09:07:14.633Z,99364.84
2019-05-22T09:09:43.233Z,99367.57
2019-05-22T09:12:12.350Z,99363.64
2019-05-22T09:14:41.263Z,99356.99
2019-05-22T09:17:10.860Z,99355.20
2019-05-22T09:19:39.950Z,99362.62
2019-05-22T09:22:09.129Z,99363.29
2019-05-22T09:24:38.469Z,99366.47
2019-05-22T09:27:08.471Z,99357.22
2019-05-22T09:29:37.658Z,99367.03
2019-05-22T09:32:07.630Z,99369.42
2019-05-22T09:34:37.717Z,99364.70
2019-05-22T09:37:07.005Z,99363.67
2019-05-22T09:39:35.894Z,99365.55
2019-05-22T09:42:04.577Z,99362.36
2019-05-22T09:44:33.146Z,99361.56
2019-05-22T09:47:01.877Z,99353.81
2019-05-22T09:49:30.495Z,99358.84
2019-05-22T09:51:59.795Z,99361.70
2019-05-22T09:54:28.389Z,99357.50
2019-05-22T09:56:56.984Z,99357.17
2019-05-22T09:59:25.786Z,99351.81
2019-05-22T10:01:54.549Z,99345.25
2019-05-22T10:04:23.773Z,99346.64
2019-05-22T10:06:52.569Z,99351.35
2019-05-22T10:09:21.041Z,99348.84
2019-05-22T10:11:49.944Z,99350.53
2019-05-22T10:14:19.282Z,99352.70
2019-05-22T10:16:48.181Z,99353.37
2019-05-22T10:19:17.009Z,99353.87
2019-05-22T10:21:47.561Z,99351.05
2019-05-22T10:24:16.253Z,99341.95
2019-05-22T10:26:44.998Z,99339.27
2019-05-22T10:29:13.503Z,99331.19
2019-05-22T10:31:42.211Z,99340.92
2019-05-22T10:34:10.705Z,99335.39
2019-05-22T10:36:42.877Z,99328.86
2019-05-22T10:39:10.353Z,99332.03
2019-05-22T10:41:39.335Z,99329.20
2019-05-22T10:44:08.065Z,99331.88
2019-05-22T10:46:37.240Z,99324.97
2019-05-22T10:49:05.932Z,99320.58
2019-05-22T10:51:34.403Z,99311.95
2019-05-22T10:54:03.097Z,99312.97
2019-05-22T10:56:32.185Z,99307.27
2019-05-22T10:59:01.727Z,99306.84
2019-05-22T11:01:32.889Z,99300.55
2019-05-22T11:04:02.330Z,99301.22
2019-05-22T11:06:30.887Z,99294.32
2019-05-22T11:08:59.984Z,99286.44
2019-05-22T11:11:28.864Z,99282.86
2019-05-22T11:14:01.816Z,99275.98
2019-05-22T11:16:30.825Z,99281.73
2019-05-22T11:19:01.406Z,99276.52
2019-05-22T11:21:31.021Z,99278.45
2019-05-22T11:23:59.827Z,99274.36
2019-05-22T11:26:28.907Z,99282.78
2019-05-22T11:28:58.152Z,99281.05
2019-05-22T11:31:26.950Z,99275.06
2019-05-22T11:33:55.738Z,99268.98
2019-05-22T11:36:24.530Z,99270.84
2019-05-22T11:38:53.306Z,99266.94
2019-05-22T11:41:22.010Z,99266.94
2019-05-22T11:43:51.163Z,99260.95
2019-05-22T11:46:20.251Z,99260.53
2019-05-22T11:48:49.581Z,99257.50
2019-05-22T11:51:20.678Z,99247.05
2019-05-22T11:53:49.619Z,99244.14
2019-05-22T11:56:18.998Z,99244.18
2019-05-22T11:58:47.577Z,99251.72
2019-05-22T12:01:16.857Z,99253.06
2019-05-22T12:03:46.969Z,99261.78
2019-05-22T12:06:15.977Z,99258.38
2019-05-22T12:08:48.365Z,99254.44
2019-05-22T12:11:19.050Z,99246.40
2019-05-22T12:13:48.973Z,99255.16
2019-05-22T12:16:19.381Z,99241.34
2019-05-22T12:18:48.565Z,99235.45
2019-05-22T12:21:17.235Z,99238.95
2019-05-22T12:23:46.269Z,99237.61
2019-05-22T12:26:15.035Z,99247.49
2019-05-22T12:28:43.716Z,99251.64
2019-05-22T12:31:13.260Z,99260.87
2019-05-22T12:33:42.463Z,99257.37
2019-05-22T12:36:13.492Z,99252.53
2019-05-22T12:38:42.398Z,99240.61
2019-05-22T12:41:13.512Z,99240.05
2019-05-22T12:43:45.036Z,99236.13
2019-05-22T12:46:14.400Z,99226.90
2019-05-22T12:48:44.627Z,99222.87
2019-05-22T12:51:14.623Z,99221.98
2019-05-22T12:53:44.310Z,99224.91
2019-05-22T12:56:13.628Z,99229.63
2019-05-22T12:58:43.716Z,99225.63
2019-05-22T13:01:13.193Z,99227.27
2019-05-22T13:03:42.314Z,99224.42
2019-05-22T13:06:11.524Z,99221.13
2019-05-22T13:08:41.346Z,99222.63
2019-05-22T13:11:10.532Z,99226.43
2019-05-22T13:13:39.321Z,99216.86
2019-05-22T13:16:09.342Z,99211.52
2019-05-22T13:18:39.102Z,99212.67
2019-05-22T13:21:11.646Z,99210.13
2019-05-22T13:23:42.775Z,99212.47
2019-05-22T13:26:11.470Z,99218.20
2019-05-22T13:28:43.905Z,99219.35
2019-05-22T13:31:13.668Z,99224.27
2019-05-22T13:33:44.067Z,99223.87
2019-05-22T13:36:13.808Z,99222.89
2019-05-22T13:38:42.763Z,99222.48
2019-05-22T13:41:11.875Z,99217.80
2019-05-22T13:43:41.088Z,99216.09
2019-05-22T13:46:10.157Z,99212.36
2019-05-22T13:48:38.890Z,99202.16
2019-05-22T13:51:07.991Z,99203.94
2019-05-22T13:53:37.270Z,99204.99
2019-05-22T13:56:06.886Z,99194.67
2019-05-22T13:58:35.698Z,99191.20
2019-05-22T14:01:05.028Z,99194.56
2019-05-22T14:03:34.559Z,99186.80
2019-05-22T14:06:03.516Z,99194.77
2019-05-22T14:08:32.623Z,99199.25
2019-05-22T14:11:02.360Z,99191.98
2019-05-22T14:13:32.044Z,99190.41
2019-05-22T14:16:00.841Z,99188.91
2019-05-22T14:18:29.678Z,99187.91
2019-05-22T14:21:01.456Z,99189.05
2019-05-22T14:23:31.391Z,99188.26
2019-05-22T14:26:00.756Z,99184.87
2019-05-22T14:28:29.846Z,99187.72
2019-05-22T14:30:58.571Z,99192.94
2019-05-22T14:33:28.562Z,99190.45
2019-05-22T14:35:58.254Z,99184.86
2019-05-22T14:38:27.859Z,99184.52
2019-05-22T14:40:56.967Z,99182.86
2019-05-22T14:43:26.284Z,99180.61
2019-05-22T14:45:55.091Z,99178.87
2019-05-22T14:48:23.824Z,99176.94
2019-05-22T14:50:53.084Z,99172.98
2019-05-22T14:53:21.702Z,99176.23
2019-05-22T14:55:51.724Z,99171.16
2019-05-22T14:58:21.419Z,99162.73
2019-05-22T15:00:52.467Z,99160.13
2019-05-22T15:03:21.697Z,99169.27
2019-05-22T15:05:51.200Z,99175.45
2019-05-22T15:08:20.110Z,99166.19
2019-05-22T15:10:49.708Z,99162.59
2019-05-22T15:13:18.637Z,99161.80
2019-05-22T15:15:47.307Z,99145.84
2019-05-22T15:18:16.335Z,99149.69
2019-05-22T15:21:00.686Z,99141.53
2019-05-22T15:23:31.885Z,99139.25
2019-05-22T15:26:01.788Z,99134.93
2019-05-22T15:28:31.794Z,99129.41
2019-05-22T15:31:01.327Z,99137.08
2019-05-22T15:33:30.655Z,99131.85
2019-05-22T15:35:59.463Z,99125.37
2019-05-22T15:38:29.506Z,99124.37
2019-05-22T15:40:58.126Z,99117.98
2019-05-22T15:43:28.053Z,99117.89
2019-05-22T15:45:57.938Z,99117.40
2019-05-22T15:48:30.912Z,99117.45
2019-05-22T15:51:07.093Z,99121.24
2019-05-22T15:53:38.019Z,99125.56
2019-05-22T15:56:09.774Z,99129.80
2019-05-22T15:58:44.208Z,99125.57
2019-05-22T16:01:16.261Z,99124.18
2019-05-22T16:03:47.628Z,99131.95
2019-05-22T16:06:16.393Z,99120.48
2019-05-22T16:08:46.453Z,99121.64
2019-05-22T16:11:16.249Z,99127.13
2019-05-22T16:13:46.690Z,99134.00
2019-05-22T16:16:16.092Z,99128.81
2019-05-22T16:18:48.308Z,99124.83
2019-05-22T16:21:18.703Z,99124.87
2019-05-22T16:23:47.802Z,99131.95
2019-05-22T16:26:17.704Z,99128.42
2019-05-22T16:28:48.033Z,99123.26
2019-05-22T16:31:18.771Z,99124.86
2019-05-22T16:33:49.648Z,99120.39
2019-05-22T16:36:20.406Z,99113.86
2019-05-22T16:38:49.280Z,99109.64
2019-05-22T16:41:18.802Z,99110.27
2019-05-22T16:43:50.551Z,99106.88
2019-05-22T16:46:21.799Z,99111.95
2019-05-22T16:48:51.983Z,99111.20
2019-05-22T16:51:21.977Z,99116.48
2019-05-22T16:53:56.352Z,99113.84
2019-05-22T16:56:25.734Z,99113.00
2019-05-22T16:58:55.216Z,99111.66
2019-05-22T17:01:25.870Z,99114.70
2019-05-22T17:03:57.803Z,99115.81
2019-05-22T17:06:27.979Z,99111.55
2019-05-22T17:08:58.489Z,99113.55
2019-05-22T17:11:29.075Z,99111.20
2019-05-22T17:14:00.862Z,99101.48
2019-05-22T17:16:33.803Z,99104.86
2019-05-22T17:19:03.210Z,99110.81
2019-05-22T17:21:32.714Z,99115.07
2019-05-22T17:24:01.942Z,99114.19
2019-05-22T17:26:31.022Z,99098.09
2019-05-22T17:29:00.248Z,99107.09
2019-05-22T17:31:29.259Z,99101.23
2019-05-22T17:33:58.793Z,99101.10
2019-05-22T17:36:28.382Z,99094.54
2019-05-22T17:38:58.148Z,99093.04
2019-05-22T17:41:28.729Z,99091.22
2019-05-22T17:43:59.748Z,99089.38
2019-05-22T17:46:30.866Z,99095.59
2019-05-22T17:49:00.163Z,99100.59
2019-05-22T17:51:29.774Z,99099.63
2019-05-22T17:53:59.074Z,99102.41
2019-05-22T17:56:28.572Z,99103.53
2019-05-22T17:58:57.293Z,99107.00
2019-05-22T18:01:27.107Z,99112.54
2019-05-22T18:03:56.090Z,99124.46
2019-05-22T18:06:24.706Z,99118.66
2019-05-22T18:08:53.616Z,99119.00
2019-05-22T18:11:22.587Z,99109.44
2019-05-22T18:13:59.179Z,99110.97
2019-05-22T18:16:28.475Z,99110.77
2019-05-22T18:18:57.535Z,99110.81
2019-05-22T18:21:26.529Z,99111.31
2019-05-22T18:23:56.316Z,99107.08
2019-05-22T18:26:26.305Z,99110.59
2019-05-22T18:28:55.223Z,99109.59
2019-05-22T18:31:23.948Z,99119.55
2019-05-22T18:33:52.660Z,99117.36
2019-05-22T18:36:21.350Z,99122.56
2019-05-22T18:38:49.897Z,99122.23
2019-05-22T18:41:18.588Z,99128.75
2019-05-22T18:43:47.270Z,99131.79
2019-05-22T18:46:15.963Z,99130.94
2019-05-22T18:48:48.091Z,99138.16
2019-05-22T18:51:16.066Z,99136.31
2019-05-22T18:53:45.298Z,99139.31
2019-05-22T18:56:14.179Z,99140.34
2019-05-22T18:58:42.986Z,99136.48
2019-05-22T19:01:16.211Z,99147.36
2019-05-22T19:03:43.575Z,99148.31
2019-05-22T19:06:12.483Z,99152.05
2019-05-22T19:08:41.100Z,99154.24
2019-05-22T19:11:09.766Z,99153.38
2019-05-22T19:13:38.880Z,99155.52
2019-05-22T19:16:07.969Z,99155.88
2019-05-22T19:18:36.876Z,99164.09
2019-05-22T19:21:05.439Z,99175.30
2019-05-22T19:23:34.137Z,99169.91
2019-05-22T19:26:05.643Z,99168.67
2019-05-22T19:28:43.641Z,99171.48
2019-05-22T19:31:04.668Z,99165.94
2019-05-22T19:33:33.352Z,99168.88
2019-05-22T19:36:02.051Z,99170.16
2019-05-22T19:38:31.042Z,99162.73
2019-05-22T19:41:00.126Z,99169.13
2019-05-22T19:43:28.818Z,99165.14
2019-05-22T19:45:57.936Z,99169.73
2019-05-22T19:48:27.627Z,99170.43
2019-05-22T19:50:56.573Z,99170.43
2019-05-22T19:53:26.264Z,99171.30
2019-05-22T19:55:55.356Z,99173.08
2019-05-22T19:58:24.733Z,99167.60
2019-05-22T20:00:53.427Z,99170.43
2019-05-22T20:03:23.313Z,99161.26
2019-05-22T20:05:52.104Z,99166.31
2019-05-22T20:08:20.833Z,99165.79
2019-05-22T20:10:50.845Z,99168.82
2019-05-22T20:13:21.427Z,99165.23
2019-05-22T20:15:50.013Z,99162.81
2019-05-22T20:18:19.374Z,99164.15
2019-05-22T20:20:48.561Z,99156.53
2019-05-22T20:23:17.355Z,99162.14
2019-05-22T20:25:45.961Z,99157.27
2019-05-22T20:28:15.450Z,99157.87
2019-05-22T20:30:44.225Z,99158.48
2019-05-22T20:33:12.921Z,99159.39
2019-05-22T20:35:41.909Z,99159.41
2019-05-22T20:38:10.753Z,99160.16
2019-05-22T20:40:40.023Z,99161.16
2019-05-22T20:43:10.105Z,99152.91
2019-05-22T20:45:42.246Z,99152.32
2019-05-22T20:48:16.738Z,99157.52
2019-05-22T20:50:45.473Z,99158.20
2019-05-22T20:53:15.565Z,99157.13
2019-05-22T20:55:46.001Z,99164.70
2019-05-22T20:58:16.484Z,99160.87
2019-05-22T21:00:46.465Z,99160.73
2019-05-22T21:03:15.362Z,99150.29
2019-05-22T21:05:44.232Z,99146.22
2019-05-22T21:08:15.039Z,99144.97
2019-05-22T21:10:47.544Z,99150.45
2019-05-22T21:13:18.027Z,99151.56
2019-05-22T21:15:47.405Z,99155.98
2019-05-22T21:18:19.496Z,99158.56
2019-05-22T21:20:54.675Z,99166.47
2019-05-22T21:23:19.804Z,99168.56
2019-05-22T21:25:50.414Z,99172.78
2019-05-22T21:28:18.892Z,99176.89
2019-05-22T21:30:48.789Z,99173.31
2019-05-22T21:33:17.842Z,99169.20
2019-05-22T21:35:46.922Z,99175.67
2019-05-22T21:38:15.724Z,99183.56
2019-05-22T21:40:44.780Z,99185.95
2019-05-22T21:43:14.692Z,99178.25
2019-05-22T21:45:43.698Z,99186.09
2019-05-22T21:48:13.283Z,99182.62
2019-05-22T21:50:42.467Z,99190.75
2019-05-22T21:53:13.214Z,99197.03
2019-05-22T21:55:45.519Z,99192.90
2019-05-22T21:58:13.087Z,99195.41
2019-05-22T22:01:03.665Z,99187.03
2019-05-22T22:03:38.018Z,99174.62
2019-05-22T22:06:08.825Z,99172.38
2019-05-22T22:08:37.401Z,99183.95
2019-05-22T22:11:07.000Z,99198.22
2019-05-22T22:13:36.626Z,99206.17
2019-05-22T22:16:07.124Z,99209.11
2019-05-22T22:18:38.030Z,99219.48
2019-05-22T22:21:07.368Z,99210.03
2019-05-22T22:23:36.759Z,99204.09
2019-05-22T22:26:20.374Z,99200.84
2019-05-22T22:28:37.689Z,99204.25
2019-05-22T22:31:08.472Z,99207.07
2019-05-22T22:33:39.046Z,99203.34
2019-05-22T22:36:09.267Z,99204.36
2019-05-22T22:38:39.146Z,99191.58
2019-05-22T22:41:09.384Z,99189.36
2019-05-22T22:43:39.191Z,99190.81
2019-05-22T22:46:22.363Z,99200.94
2019-05-22T22:48:52.673Z,99206.99
2019-05-22T22:51:22.045Z,99207.72
2019-05-22T22:53:51.153Z,99215.61
2019-05-22T22:56:20.277Z,99216.59
2019-05-22T22:58:48.938Z,99214.55
2019-05-22T23:01:23.092Z,99219.11
2019-05-22T23:03:53.888Z,99217.03
2019-05-22T23:06:22.972Z,99217.48
2019-05-22T23:08:51.723Z,99218.16
2019-05-22T23:11:21.840Z,99225.98
2019-05-22T23:13:50.410Z,99225.24
2019-05-22T23:16:20.610Z,99223.16
2019-05-22T23:19:31.503Z,99224.92
2019-05-22T23:22:00.830Z,99225.98
2019-05-22T23:24:30.720Z,99219.39
2019-05-22T23:27:00.426Z,99222.27
2019-05-22T23:29:30.221Z,99227.18
2019-05-22T23:32:00.769Z,99228.88
2019-05-22T23:34:30.158Z,99230.52
2019-05-22T23:36:59.972Z,99232.18
2019-05-22T23:39:30.150Z,99234.84
2019-05-22T23:42:04.102Z,99235.38
2019-05-22T23:44:35.319Z,99244.59
2019-05-22T23:47:04.802Z,99240.17
2019-05-22T23:49:34.307Z,99244.83
2019-05-22T23:52:03.769Z,99244.65
2019-05-22T23:54:33.260Z,99236.72
2019-05-22T23:57:02.630Z,99228.81
2019-05-22T23:59:33.255Z,99213.52
